CheckWX is a tool to help pilots better visualize weather data.  It is not intended as a substitute for an official pre-flight weather briefing.

05:16:04 UTC

KMRB METAR
Eastern Wv Regional / Shepherd Field Airport
Martinsburg, West Virginia, USA
Current

23 mins ago

KMRB 240453Z AUTO 00000KT 5SM BR OVC005 02/01 A3008 RMK AO2 CIG 004V009 SLP190 T00170011 400331006
Observed
Feb-24 @ 04:53 UTC
Visibility
5 SM
Flight Rules
IFR
Conditions
Mist
Cloud Levels
  • Overcast at 500' AGL
Temperature
C / 36°F
Dewpoint
C / 34°F
Humidity
93%
Altimeter
30.08" Hg
Pressure
1019 hPa
Previous

1 hour ago

KMRB 240353Z AUTO 09004KT 5SM BR OVC007 02/01 A3009 RMK AO2 PRESFR SLP193 T00170011
Observed
Feb-24 @ 03:53 UTC
Wind
  • 090° at 4 KTS
Visibility
5 SM
Flight Rules
IFR
Conditions
Mist
Cloud Levels
  • Overcast at 700' AGL
Temperature
C / 36°F
Dewpoint
C / 34°F
Humidity
93%
Altimeter
30.09" Hg
Pressure
1019.3 hPa
Previous

2 hours ago

KMRB 240253Z AUTO 00000KT 5SM BR OVC006 02/01 A3015 RMK AO2 CIG 005V009 SLP215 T00170011 56020
Observed
Feb-24 @ 02:53 UTC
Visibility
5 SM
Flight Rules
IFR
Conditions
Mist
Cloud Levels
  • Overcast at 600' AGL
Temperature
C / 36°F
Dewpoint
C / 34°F
Humidity
93%
Altimeter
30.15" Hg
Pressure
1021.5 hPa